sensor_id;sensor_type;location;lat;lon;timestamp;pressure;altitude;pressure_sealevel;temperature;humidity
20115;BME280;10218;42.874;25.320;2022-08-30T00:02:46;97137.88;;;22.27;100.00
20115;BME280;10218;42.874;25.320;2022-08-30T00:05:16;97128.97;;;22.15;100.00
20115;BME280;10218;42.874;25.320;2022-08-30T00:07:43;97126.97;;;22.10;100.00
20115;BME280;10218;42.874;25.320;2022-08-30T00:10:13;97134.41;;;22.32;100.00
20115;BME280;10218;42.874;25.320;2022-08-30T00:12:41;97133.13;;;22.34;100.00
20115;BME280;10218;42.874;25.320;2022-08-30T00:15:11;97139.16;;;21.80;100.00
20115;BME280;10218;42.874;25.320;2022-08-30T00:17:41;97137.47;;;21.90;100.00
20115;BME280;10218;42.874;25.320;2022-08-30T00:20:12;97137.47;;;21.90;100.00
20115;BME280;10218;42.874;25.320;2022-08-30T00:22:40;97143.66;;;22.14;100.00
20115;BME280;10218;42.874;25.320;2022-08-30T00:25:08;97142.00;;;22.13;100.00
20115;BME280;10218;42.874;25.320;2022-08-30T00:27:35;97143.28;;;21.94;100.00
20115;BME280;10218;42.874;25.320;2022-08-30T00:30:05;97148.53;;;21.84;100.00
20115;BME280;10218;42.874;25.320;2022-08-30T00:32:33;97153.97;;;21.84;100.00
20115;BME280;10218;42.874;25.320;2022-08-30T00:35:01;97158.00;;;21.69;100.00
20115;BME280;10218;42.874;25.320;2022-08-30T00:37:29;97165.00;;;21.65;100.00
20115;BME280;10218;42.874;25.320;2022-08-30T00:39:57;97157.03;;;21.75;100.00
20115;BME280;10218;42.874;25.320;2022-08-30T00:42:26;97170.00;;;21.57;100.00
20115;BME280;10218;42.874;25.320;2022-08-30T00:44:57;97160.84;;;21.74;100.00
20115;BME280;10218;42.874;25.320;2022-08-30T00:47:25;97161.34;;;21.71;100.00
20115;BME280;10218;42.874;25.320;2022-08-30T00:49:54;97156.09;;;21.82;100.00
20115;BME280;10218;42.874;25.320;2022-08-30T00:52:23;97155.81;;;21.95;100.00
20115;BME280;10218;42.874;25.320;2022-08-30T00:54:51;97158.87;;;22.15;100.00
20115;BME280;10218;42.874;25.320;2022-08-30T00:57:19;97161.84;;;21.97;100.00
20115;BME280;10218;42.874;25.320;2022-08-30T00:59:48;97162.94;;;22.12;100.00
20115;BME280;10218;42.874;25.320;2022-08-30T01:02:20;97164.34;;;21.87;100.00
20115;BME280;10218;42.874;25.320;2022-08-30T01:04:50;97161.34;;;21.71;100.00
20115;BME280;10218;42.874;25.320;2022-08-30T01:07:20;97167.72;;;21.37;100.00
20115;BME280;10218;42.874;25.320;2022-08-30T01:09:49;97172.75;;;21.45;100.00
20115;BME280;10218;42.874;25.320;2022-08-30T01:12:19;97169.69;;;21.53;100.00
20115;BME280;10218;42.874;25.320;2022-08-30T01:14:46;97167.94;;;21.36;100.00
20115;BME280;10218;42.874;25.320;2022-08-30T01:17:13;97173.34;;;21.47;100.00
20115;BME280;10218;42.874;25.320;2022-08-30T01:19:57;97177.03;;;21.41;100.00
20115;BME280;10218;42.874;25.320;2022-08-30T01:22:38;97174.41;;;21.46;100.00
20115;BME280;10218;42.874;25.320;2022-08-30T01:25:11;97175.03;;;21.37;100.00
20115;BME280;10218;42.874;25.320;2022-08-30T01:27:43;97175.88;;;21.37;100.00
20115;BME280;10218;42.874;25.320;2022-08-30T01:30:12;97171.88;;;21.28;100.00
20115;BME280;10218;42.874;25.320;2022-08-30T01:32:43;97175.13;;;21.53;100.00
20115;BME280;10218;42.874;25.320;2022-08-30T01:35:14;97169.72;;;21.30;100.00
20115;BME280;10218;42.874;25.320;2022-08-30T01:37:44;97180.66;;;21.58;100.00
20115;BME280;10218;42.874;25.320;2022-08-30T01:40:13;97180.34;;;21.43;100.00
20115;BME280;10218;42.874;25.320;2022-08-30T01:42:42;97182.28;;;21.08;100.00
20115;BME280;10218;42.874;25.320;2022-08-30T01:45:11;97176.59;;;21.21;100.00
20115;BME280;10218;42.874;25.320;2022-08-30T01:47:38;97170.09;;;20.99;100.00
20115;BME280;10218;42.874;25.320;2022-08-30T01:50:07;97175.88;;;20.67;100.00
20115;BME280;10218;42.874;25.320;2022-08-30T01:52:35;97182.38;;;20.78;100.00
20115;BME280;10218;42.874;25.320;2022-08-30T01:55:04;97175.53;;;20.64;100.00
20115;BME280;10218;42.874;25.320;2022-08-30T01:57:31;97176.34;;;20.53;100.00
20115;BME280;10218;42.874;25.320;2022-08-30T01:59:58;97186.25;;;20.47;100.00
20115;BME280;10218;42.874;25.320;2022-08-30T02:02:27;97185.34;;;20.76;100.00
20115;BME280;10218;42.874;25.320;2022-08-30T02:04:57;97181.19;;;20.74;100.00
20115;BME280;10218;42.874;25.320;2022-08-30T02:07:25;97182.50;;;20.95;100.00
20115;BME280;10218;42.874;25.320;2022-08-30T02:09:52;97189.22;;;20.69;100.00
20115;BME280;10218;42.874;25.320;2022-08-30T02:12:22;97172.84;;;20.87;100.00
20115;BME280;10218;42.874;25.320;2022-08-30T02:14:50;97174.50;;;20.76;100.00
20115;BME280;10218;42.874;25.320;2022-08-30T02:17:18;97177.19;;;20.76;100.00
20115;BME280;10218;42.874;25.320;2022-08-30T02:19:45;97174.47;;;20.65;100.00
20115;BME280;10218;42.874;25.320;2022-08-30T02:22:14;97181.22;;;20.97;100.00
20115;BME280;10218;42.874;25.320;2022-08-30T02:24:43;97164.09;;;20.50;100.00
20115;BME280;10218;42.874;25.320;2022-08-30T02:27:11;97180.25;;;20.68;100.00
20115;BME280;10218;42.874;25.320;2022-08-30T02:29:38;97182.13;;;20.44;100.00
20115;BME280;10218;42.874;25.320;2022-08-30T02:32:05;97156.13;;;20.25;100.00
20115;BME280;10218;42.874;25.320;2022-08-30T02:34:33;97163.66;;;20.23;100.00
20115;BME280;10218;42.874;25.320;2022-08-30T02:37:01;97165.09;;;20.26;100.00
20115;BME280;10218;42.874;25.320;2022-08-30T02:39:29;97162.25;;;20.21;100.00
20115;BME280;10218;42.874;25.320;2022-08-30T02:41:57;97174.53;;;19.93;100.00
20115;BME280;10218;42.874;25.320;2022-08-30T02:44:26;97163.44;;;19.83;100.00
20115;BME280;10218;42.874;25.320;2022-08-30T02:46:53;97173.25;;;19.66;100.00
20115;BME280;10218;42.874;25.320;2022-08-30T02:49:21;97169.22;;;19.87;100.00
20115;BME280;10218;42.874;25.320;2022-08-30T02:51:58;97170.00;;;19.76;100.00
20115;BME280;10218;42.874;25.320;2022-08-30T02:54:26;97173.91;;;19.80;100.00
20115;BME280;10218;42.874;25.320;2022-08-30T02:56:55;97156.63;;;19.92;100.00
20115;BME280;10218;42.874;25.320;2022-08-30T02:59:26;97162.50;;;19.89;100.00
20115;BME280;10218;42.874;25.320;2022-08-30T03:01:56;97159.94;;;19.94;100.00
20115;BME280;10218;42.874;25.320;2022-08-30T03:04:23;97165.09;;;19.84;100.00
20115;BME280;10218;42.874;25.320;2022-08-30T03:06:51;97167.09;;;19.89;100.00
20115;BME280;10218;42.874;25.320;2022-08-30T03:09:20;97174.81;;;20.03;100.00
20115;BME280;10218;42.874;25.320;2022-08-30T03:11:48;97173.16;;;20.02;100.00
20115;BME280;10218;42.874;25.320;2022-08-30T03:14:16;97175.72;;;19.97;100.00
20115;BME280;10218;42.874;25.320;2022-08-30T03:16:43;97170.94;;;19.81;100.00
20115;BME280;10218;42.874;25.320;2022-08-30T03:19:10;97182.25;;;19.78;100.00
20115;BME280;10218;42.874;25.320;2022-08-30T03:21:38;97180.59;;;19.77;100.00
20115;BME280;10218;42.874;25.320;2022-08-30T03:24:05;97175.03;;;19.72;100.00
20115;BME280;10218;42.874;25.320;2022-08-30T03:26:34;97182.00;;;19.68;100.00
20115;BME280;10218;42.874;25.320;2022-08-30T03:29:02;97186.78;;;19.66;100.00
20115;BME280;10218;42.874;25.320;2022-08-30T03:31:29;97183.16;;;19.60;100.00
20115;BME280;10218;42.874;25.320;2022-08-30T03:33:58;97186.50;;;19.56;100.00
20115;BME280;10218;42.874;25.320;2022-08-30T03:36:26;97180.31;;;19.67;100.00
20115;BME280;10218;42.874;25.320;2022-08-30T03:38:53;97173.37;;;19.71;100.00
20115;BME280;10218;42.874;25.320;2022-08-30T03:41:20;97179.63;;;19.72;100.00
20115;BME280;10218;42.874;25.320;2022-08-30T03:43:47;97180.31;;;19.67;100.00
20115;BME280;10218;42.874;25.320;2022-08-30T03:46:16;97181.56;;;19.83;100.00
20115;BME280;10218;42.874;25.320;2022-08-30T03:48:43;97180.44;;;19.90;100.00
20115;BME280;10218;42.874;25.320;2022-08-30T03:51:12;97186.34;;;19.99;100.00
20115;BME280;10218;42.874;25.320;2022-08-30T03:53:40;97187.50;;;19.91;100.00
20115;BME280;10218;42.874;25.320;2022-08-30T03:56:08;97185.47;;;19.87;100.00
20115;BME280;10218;42.874;25.320;2022-08-30T03:58:36;97188.25;;;19.98;100.00
20115;BME280;10218;42.874;25.320;2022-08-30T04:01:06;97189.34;;;20.09;100.00
20115;BME280;10218;42.874;25.320;2022-08-30T04:03:33;97186.13;;;20.00;100.00
20115;BME280;10218;42.874;25.320;2022-08-30T04:06:02;97197.19;;;19.99;100.00
20115;BME280;10218;42.874;25.320;2022-08-30T04:08:31;97197.06;;;19.94;100.00
20115;BME280;10218;42.874;25.320;2022-08-30T04:10:59;97202.13;;;19.90;100.00
20115;BME280;10218;42.874;25.320;2022-08-30T04:13:29;97204.97;;;19.95;100.00
20115;BME280;10218;42.874;25.320;2022-08-30T04:15:56;97208.53;;;20.07;100.00
20115;BME280;10218;42.874;25.320;2022-08-30T04:18:23;97202.91;;;19.79;100.00
20115;BME280;10218;42.874;25.320;2022-08-30T04:20:51;97206.59;;;19.96;100.00
20115;BME280;10218;42.874;25.320;2022-08-30T04:23:19;97209.06;;;20.16;100.00
20115;BME280;10218;42.874;25.320;2022-08-30T04:25:49;97204.13;;;20.25;100.00
20115;BME280;10218;42.874;25.320;2022-08-30T04:28:16;97210.34;;;20.14;100.00
20115;BME280;10218;42.874;25.320;2022-08-30T04:30:44;97189.91;;;20.53;100.00
20115;BME280;10218;42.874;25.320;2022-08-30T04:33:14;97202.41;;;20.42;100.00
20115;BME280;10218;42.874;25.320;2022-08-30T04:35:43;97198.19;;;20.58;100.00
20115;BME280;10218;42.874;25.320;2022-08-30T04:38:14;97202.09;;;20.73;100.00
20115;BME280;10218;42.874;25.320;2022-08-30T04:40:43;97198.91;;;20.65;100.00
20115;BME280;10218;42.874;25.320;2022-08-30T04:43:10;97205.25;;;20.59;100.00
20115;BME280;10218;42.874;25.320;2022-08-30T04:45:39;97196.41;;;20.40;100.00
20115;BME280;10218;42.874;25.320;2022-08-30T04:48:07;97208.00;;;20.70;100.00
20115;BME280;10218;42.874;25.320;2022-08-30T04:50:36;97203.25;;;20.54;100.00
20115;BME280;10218;42.874;25.320;2022-08-30T04:53:10;97211.31;;;20.72;100.00
20115;BME280;10218;42.874;25.320;2022-08-30T04:55:42;97203.06;;;21.14;100.00
20115;BME280;10218;42.874;25.320;2022-08-30T04:58:10;97212.84;;;20.91;100.00
20115;BME280;10218;42.874;25.320;2022-08-30T05:00:38;97210.94;;;21.04;100.00
20115;BME280;10218;42.874;25.320;2022-08-30T05:03:09;97215.22;;;21.11;100.00
20115;BME280;10218;42.874;25.320;2022-08-30T05:05:36;97209.44;;;20.96;100.00
20115;BME280;10218;42.874;25.320;2022-08-30T05:08:10;97207.41;;;21.38;100.00
20115;BME280;10218;42.874;25.320;2022-08-30T05:10:39;97204.69;;;21.38;100.00
20115;BME280;10218;42.874;25.320;2022-08-30T05:13:08;97206.69;;;21.83;100.00
20115;BME280;10218;42.874;25.320;2022-08-30T05:15:37;97218.81;;;21.63;100.00
20115;BME280;10218;42.874;25.320;2022-08-30T05:18:07;97209.13;;;21.56;100.00
20115;BME280;10218;42.874;25.320;2022-08-30T05:20:35;97215.09;;;21.81;100.00
20115;BME280;10218;42.874;25.320;2022-08-30T05:23:04;97208.91;;;21.86;100.00
20115;BME280;10218;42.874;25.320;2022-08-30T05:25:36;97211.22;;;22.05;100.00
20115;BME280;10218;42.874;25.320;2022-08-30T05:28:05;97210.31;;;22.00;100.00
20115;BME280;10218;42.874;25.320;2022-08-30T05:30:46;97209.59;;;22.04;100.00
20115;BME280;10218;42.874;25.320;2022-08-30T05:33:19;97213.59;;;22.30;100.00
20115;BME280;10218;42.874;25.320;2022-08-30T05:35:56;97216.44;;;22.07;100.00
20115;BME280;10218;42.874;25.320;2022-08-30T05:38:29;97211.41;;;22.15;100.00
20115;BME280;10218;42.874;25.320;2022-08-30T05:41:01;97207.56;;;22.73;100.00
20115;BME280;10218;42.874;25.320;2022-08-30T05:43:38;97210.13;;;22.80;100.00
20115;BME280;10218;42.874;25.320;2022-08-30T05:46:11;97187.38;;;23.08;100.00
20115;BME280;10218;42.874;25.320;2022-08-30T05:48:39;97214.06;;;23.27;100.00
20115;BME280;10218;42.874;25.320;2022-08-30T05:51:09;97215.75;;;23.12;100.00
20115;BME280;10218;42.874;25.320;2022-08-30T05:53:38;97211.28;;;23.22;100.00
20115;BME280;10218;42.874;25.320;2022-08-30T05:56:13;97215.38;;;23.41;100.00
20115;BME280;10218;42.874;25.320;2022-08-30T05:58:42;97215.22;;;23.70;100.00
20115;BME280;10218;42.874;25.320;2022-08-30T06:01:24;97218.84;;;23.54;100.00
20115;BME280;10218;42.874;25.320;2022-08-30T06:03:56;97216.06;;;23.92;100.00
20115;BME280;10218;42.874;25.320;2022-08-30T06:06:33;97224.56;;;24.17;100.00
20115;BME280;10218;42.874;25.320;2022-08-30T06:09:03;97224.59;;;23.79;100.00
20115;BME280;10218;42.874;25.320;2022-08-30T06:11:37;97222.69;;;24.01;100.00
20115;BME280;10218;42.874;25.320;2022-08-30T06:14:05;97222.94;;;24.21;100.00
20115;BME280;10218;42.874;25.320;2022-08-30T06:16:33;97233.72;;;24.11;100.00
20115;BME280;10218;42.874;25.320;2022-08-30T06:19:02;97229.28;;;24.27;100.00
20115;BME280;10218;42.874;25.320;2022-08-30T06:21:35;97226.84;;;24.31;100.00
20115;BME280;10218;42.874;25.320;2022-08-30T06:24:08;97230.53;;;24.41;100.00
20115;BME280;10218;42.874;25.320;2022-08-30T06:26:43;97244.03;;;24.53;100.00
20115;BME280;10218;42.874;25.320;2022-08-30T06:29:13;97215.94;;;24.89;100.00
20115;BME280;10218;42.874;25.320;2022-08-30T06:31:41;97244.50;;;25.08;100.00
20115;BME280;10218;42.874;25.320;2022-08-30T06:34:08;97244.88;;;25.59;100.00
20115;BME280;10218;42.874;25.320;2022-08-30T06:36:36;97233.72;;;25.81;100.00
20115;BME280;10218;42.874;25.320;2022-08-30T06:39:06;97248.19;;;25.71;100.00
20115;BME280;10218;42.874;25.320;2022-08-30T06:41:38;97242.97;;;26.37;100.00
20115;BME280;10218;42.874;25.320;2022-08-30T06:44:09;97254.47;;;25.67;100.00
20115;BME280;10218;42.874;25.320;2022-08-30T06:46:39;97237.94;;;26.09;100.00
20115;BME280;10218;42.874;25.320;2022-08-30T06:49:07;97241.44;;;27.17;100.00
20115;BME280;10218;42.874;25.320;2022-08-30T06:51:37;97232.91;;;27.18;100.00
20115;BME280;10218;42.874;25.320;2022-08-30T06:54:05;97248.50;;;27.43;100.00
20115;BME280;10218;42.874;25.320;2022-08-30T06:56:35;97247.72;;;27.02;100.00
20115;BME280;10218;42.874;25.320;2022-08-30T06:59:06;97258.88;;;27.77;94.69
20115;BME280;10218;42.874;25.320;2022-08-30T07:01:39;97252.62;;;27.36;93.48
20115;BME280;10218;42.874;25.320;2022-08-30T07:04:09;97250.47;;;27.33;88.61
20115;BME280;10218;42.874;25.320;2022-08-30T07:06:37;97257.84;;;27.42;90.54
20115;BME280;10218;42.874;25.320;2022-08-30T07:09:06;97248.00;;;26.91;91.23
20115;BME280;10218;42.874;25.320;2022-08-30T07:11:36;97249.09;;;27.05;93.23
20115;BME280;10218;42.874;25.320;2022-08-30T07:14:05;97244.69;;;27.29;87.29
20115;BME280;10218;42.874;25.320;2022-08-30T07:16:33;97262.16;;;27.74;80.59
20115;BME280;10218;42.874;25.320;2022-08-30T07:19:06;97259.22;;;27.30;88.90
20115;BME280;10218;42.874;25.320;2022-08-30T07:21:36;97244.72;;;28.19;80.38
20115;BME280;10218;42.874;25.320;2022-08-30T07:24:05;97262.09;;;27.89;78.98
20115;BME280;10218;42.874;25.320;2022-08-30T07:26:36;97268.59;;;28.28;76.79
20115;BME280;10218;42.874;25.320;2022-08-30T07:29:04;97270.38;;;28.48;72.36
20115;BME280;10218;42.874;25.320;2022-08-30T07:31:31;97260.16;;;28.59;68.34
20115;BME280;10218;42.874;25.320;2022-08-30T07:34:02;97273.22;;;27.13;77.30
20115;BME280;10218;42.874;25.320;2022-08-30T07:36:32;97269.91;;;27.56;74.32
20115;BME280;10218;42.874;25.320;2022-08-30T07:39:03;97276.03;;;28.67;69.41
20115;BME280;10218;42.874;25.320;2022-08-30T07:41:36;97266.81;;;29.25;62.19
20115;BME280;10218;42.874;25.320;2022-08-30T07:44:06;97266.97;;;28.22;71.56
20115;BME280;10218;42.874;25.320;2022-08-30T07:46:38;97279.63;;;28.08;71.60
20115;BME280;10218;42.874;25.320;2022-08-30T07:49:12;97273.88;;;28.64;67.17
20115;BME280;10218;42.874;25.320;2022-08-30T07:51:40;97274.81;;;29.22;61.34
20115;BME280;10218;42.874;25.320;2022-08-30T07:54:07;97273.66;;;27.91;71.16
20115;BME280;10218;42.874;25.320;2022-08-30T07:56:35;97271.28;;;29.16;62.30
20115;BME280;10218;42.874;25.320;2022-08-30T07:59:03;97284.38;;;28.96;63.01
20115;BME280;10218;42.874;25.320;2022-08-30T08:01:30;97276.31;;;29.67;62.73
20115;BME280;10218;42.874;25.320;2022-08-30T08:03:58;97276.00;;;29.73;61.03
20115;BME280;10218;42.874;25.320;2022-08-30T08:06:25;97270.66;;;29.82;58.33
20115;BME280;10218;42.874;25.320;2022-08-30T08:08:53;97281.81;;;29.67;61.89
20115;BME280;10218;42.874;25.320;2022-08-30T08:11:24;97283.09;;;30.03;59.21
20115;BME280;10218;42.874;25.320;2022-08-30T08:13:58;97273.09;;;29.31;59.23
20115;BME280;10218;42.874;25.320;2022-08-30T08:16:28;97259.84;;;28.60;63.42
20115;BME280;10218;42.874;25.320;2022-08-30T08:18:56;97282.41;;;29.93;58.54
20115;BME280;10218;42.874;25.320;2022-08-30T08:21:24;97244.72;;;29.02;61.90
20115;BME280;10218;42.874;25.320;2022-08-30T08:23:54;97267.28;;;30.33;55.13
20115;BME280;10218;42.874;25.320;2022-08-30T08:26:21;97273.13;;;30.31;55.83
20115;BME280;10218;42.874;25.320;2022-08-30T08:28:49;97271.31;;;30.64;52.23
20115;BME280;10218;42.874;25.320;2022-08-30T08:31:24;97257.66;;;30.91;51.08
20115;BME280;10218;42.874;25.320;2022-08-30T08:33:52;97267.66;;;31.38;50.08
20115;BME280;10218;42.874;25.320;2022-08-30T08:36:20;97257.72;;;30.86;50.31
20115;BME280;10218;42.874;25.320;2022-08-30T08:38:47;97261.09;;;31.02;49.73
20115;BME280;10218;42.874;25.320;2022-08-30T08:47:18;97272.91;;;31.54;46.70
20115;BME280;10218;42.874;25.320;2022-08-30T08:49:53;97267.28;;;30.75;50.23
20115;BME280;10218;42.874;25.320;2022-08-30T08:52:28;97265.63;;;31.12;48.93
20115;BME280;10218;42.874;25.320;2022-08-30T08:55:17;97254.50;;;32.58;46.02
20115;BME280;10218;42.874;25.320;2022-08-30T08:57:46;97259.06;;;32.00;46.25
20115;BME280;10218;42.874;25.320;2022-08-30T09:00:14;97264.53;;;32.68;44.00
20115;BME280;10218;42.874;25.320;2022-08-30T09:03:01;97259.75;;;33.40;44.21
20115;BME280;10218;42.874;25.320;2022-08-30T09:05:36;97272.72;;;32.73;43.77
20115;BME280;10218;42.874;25.320;2022-08-30T09:08:09;97261.28;;;32.39;44.98
20115;BME280;10218;42.874;25.320;2022-08-30T09:10:49;97260.88;;;31.77;44.86
20115;BME280;10218;42.874;25.320;2022-08-30T09:13:20;97261.22;;;31.43;46.87
20115;BME280;10218;42.874;25.320;2022-08-30T09:15:47;97259.13;;;30.84;47.64
20115;BME280;10218;42.874;25.320;2022-08-30T09:18:18;97251.81;;;31.44;45.76
20115;BME280;10218;42.874;25.320;2022-08-30T09:20:48;97250.75;;;31.26;46.61
20115;BME280;10218;42.874;25.320;2022-08-30T09:23:27;97249.41;;;31.24;45.14
20115;BME280;10218;42.874;25.320;2022-08-30T09:26:13;97251.56;;;31.73;45.53
20115;BME280;10218;42.874;25.320;2022-08-30T09:28:46;97246.69;;;32.11;44.64
20115;BME280;10218;42.874;25.320;2022-08-30T09:34:02;97248.94;;;33.92;42.62
20115;BME280;10218;42.874;25.320;2022-08-30T09:39:29;97240.84;;;32.12;45.68
20115;BME280;10218;42.874;25.320;2022-08-30T09:42:18;97238.31;;;32.52;44.35
20115;BME280;10218;42.874;25.320;2022-08-30T09:44:47;97237.69;;;32.55;45.52
20115;BME280;10218;42.874;25.320;2022-08-30T09:47:27;97227.75;;;33.34;43.69
20115;BME280;10218;42.874;25.320;2022-08-30T09:50:10;97227.44;;;33.14;43.43
20115;BME280;10218;42.874;25.320;2022-08-30T09:52:41;97227.84;;;32.62;43.30
20115;BME280;10218;42.874;25.320;2022-08-30T09:55:22;97228.16;;;32.25;45.25
20115;BME280;10218;42.874;25.320;2022-08-30T10:00:45;97227.59;;;33.92;43.04
20115;BME280;10218;42.874;25.320;2022-08-30T10:03:55;97224.84;;;33.39;41.72
20115;BME280;10218;42.874;25.320;2022-08-30T10:09:32;97217.56;;;32.27;45.32
20115;BME280;10218;42.874;25.320;2022-08-30T10:14:47;97216.94;;;33.02;43.14
20115;BME280;10218;42.874;25.320;2022-08-30T10:20:10;97206.56;;;32.13;43.26
20115;BME280;10218;42.874;25.320;2022-08-30T10:22:44;97200.97;;;33.83;43.85
20115;BME280;10218;42.874;25.320;2022-08-30T10:25:18;97200.00;;;34.70;41.09
20115;BME280;10218;42.874;25.320;2022-08-30T10:30:16;97191.41;;;33.98;38.99
20115;BME280;10218;42.874;25.320;2022-08-30T10:33:00;97181.16;;;35.36;37.64
20115;BME280;10218;42.874;25.320;2022-08-30T10:35:41;97189.06;;;35.72;37.27
20115;BME280;10218;42.874;25.320;2022-08-30T10:38:47;97184.31;;;35.08;38.18
20115;BME280;10218;42.874;25.320;2022-08-30T10:41:32;97182.84;;;35.20;38.18
20115;BME280;10218;42.874;25.320;2022-08-30T10:44:06;97188.87;;;34.27;38.16
20115;BME280;10218;42.874;25.320;2022-08-30T10:47:09;97187.72;;;36.07;38.49
20115;BME280;10218;42.874;25.320;2022-08-30T10:49:45;97185.38;;;35.42;37.10
20115;BME280;10218;42.874;25.320;2022-08-30T10:52:29;97181.56;;;36.52;36.24
20115;BME280;10218;42.874;25.320;2022-08-30T10:55:06;97184.06;;;36.24;35.30
20115;BME280;10218;42.874;25.320;2022-08-30T10:57:36;97184.75;;;34.07;38.58
20115;BME280;10218;42.874;25.320;2022-08-30T11:00:13;97189.03;;;34.30;39.42
20115;BME280;10218;42.874;25.320;2022-08-30T11:08:40;97179.88;;;35.80;36.24
20115;BME280;10218;42.874;25.320;2022-08-30T11:14:08;97171.44;;;33.47;40.21
20115;BME280;10218;42.874;25.320;2022-08-30T11:16:44;97160.19;;;34.83;39.91
20115;BME280;10218;42.874;25.320;2022-08-30T11:19:20;97162.53;;;36.33;35.03
20115;BME280;10218;42.874;25.320;2022-08-30T11:21:49;97163.25;;;33.73;38.96
20115;BME280;10218;42.874;25.320;2022-08-30T11:24:19;97160.66;;;35.95;36.76
20115;BME280;10218;42.874;25.320;2022-08-30T11:26:58;97158.16;;;36.32;37.04
20115;BME280;10218;42.874;25.320;2022-08-30T11:32:55;97153.00;;;33.12;42.84
20115;BME280;10218;42.874;25.320;2022-08-30T11:37:43;97142.69;;;33.66;40.48
20115;BME280;10218;42.874;25.320;2022-08-30T11:42:52;97145.63;;;33.21;41.19
20115;BME280;10218;42.874;25.320;2022-08-30T11:50:59;97137.03;;;32.20;42.63
20115;BME280;10218;42.874;25.320;2022-08-30T11:56:57;97125.66;;;35.18;38.94
20115;BME280;10218;42.874;25.320;2022-08-30T11:59:58;97119.00;;;36.91;34.68
20115;BME280;10218;42.874;25.320;2022-08-30T12:03:05;97120.41;;;35.64;36.24
20115;BME280;10218;42.874;25.320;2022-08-30T12:14:10;97111.38;;;35.37;36.46
20115;BME280;10218;42.874;25.320;2022-08-30T12:17:29;97112.37;;;34.69;37.94
20115;BME280;10218;42.874;25.320;2022-08-30T12:22:46;97106.00;;;32.90;40.04
20115;BME280;10218;42.874;25.320;2022-08-30T12:25:29;97109.66;;;32.54;42.52
20115;BME280;10218;42.874;25.320;2022-08-30T12:30:43;97114.78;;;31.62;43.64
20115;BME280;10218;42.874;25.320;2022-08-30T12:33:12;97111.53;;;32.45;41.28
20115;BME280;10218;42.874;25.320;2022-08-30T12:35:41;97106.97;;;31.91;42.10
20115;BME280;10218;42.874;25.320;2022-08-30T12:38:17;97103.38;;;32.40;42.31
20115;BME280;10218;42.874;25.320;2022-08-30T12:40:53;97109.22;;;33.93;39.80
20115;BME280;10218;42.874;25.320;2022-08-30T12:43:38;97113.78;;;33.98;38.38
20115;BME280;10218;42.874;25.320;2022-08-30T12:46:15;97109.19;;;33.36;40.84
20115;BME280;10218;42.874;25.320;2022-08-30T12:48:43;97108.03;;;33.37;40.44
20115;BME280;10218;42.874;25.320;2022-08-30T12:56:51;97107.97;;;31.95;42.61
20115;BME280;10218;42.874;25.320;2022-08-30T12:59:44;97106.53;;;32.70;42.21
20115;BME280;10218;42.874;25.320;2022-08-30T13:02:25;97110.91;;;33.24;41.00
20115;BME280;10218;42.874;25.320;2022-08-30T13:04:54;97093.94;;;32.86;44.07
20115;BME280;10218;42.874;25.320;2022-08-30T13:07:31;97099.63;;;33.51;43.60
20115;BME280;10218;42.874;25.320;2022-08-30T13:10:14;97095.47;;;33.71;43.50
20115;BME280;10218;42.874;25.320;2022-08-30T13:12:59;97080.78;;;36.05;40.98
20115;BME280;10218;42.874;25.320;2022-08-30T13:15:31;97085.81;;;36.32;40.86
20115;BME280;10218;42.874;25.320;2022-08-30T13:18:26;97088.72;;;36.56;39.35
20115;BME280;10218;42.874;25.320;2022-08-30T13:23:53;97080.53;;;34.06;42.66
20115;BME280;10218;42.874;25.320;2022-08-30T13:26:21;97083.97;;;32.76;44.74
20115;BME280;10218;42.874;25.320;2022-08-30T13:28:50;97073.16;;;34.62;42.06
20115;BME280;10218;42.874;25.320;2022-08-30T13:31:18;97067.53;;;33.50;43.60
20115;BME280;10218;42.874;25.320;2022-08-30T13:33:45;97062.75;;;32.49;46.19
20115;BME280;10218;42.874;25.320;2022-08-30T13:36:13;97059.00;;;32.45;46.40
20115;BME280;10218;42.874;25.320;2022-08-30T13:38:40;97053.22;;;32.33;46.14
20115;BME280;10218;42.874;25.320;2022-08-30T13:41:09;97051.28;;;31.98;47.86
20115;BME280;10218;42.874;25.320;2022-08-30T13:43:36;97054.81;;;33.09;46.12
20115;BME280;10218;42.874;25.320;2022-08-30T13:46:24;97045.13;;;32.14;48.33
20115;BME280;10218;42.874;25.320;2022-08-30T13:49:06;97052.09;;;33.18;46.17
20115;BME280;10218;42.874;25.320;2022-08-30T13:51:56;97047.19;;;31.95;49.43
20115;BME280;10218;42.874;25.320;2022-08-30T13:54:35;97046.56;;;31.35;52.62
20115;BME280;10218;42.874;25.320;2022-08-30T13:57:04;97041.03;;;31.35;51.89
20115;BME280;10218;42.874;25.320;2022-08-30T13:59:31;97050.50;;;31.83;50.76
20115;BME280;10218;42.874;25.320;2022-08-30T14:02:01;97052.94;;;31.22;52.20
20115;BME280;10218;42.874;25.320;2022-08-30T14:04:35;97051.91;;;30.26;55.33
20115;BME280;10218;42.874;25.320;2022-08-30T14:07:03;97046.84;;;30.14;59.06
20115;BME280;10218;42.874;25.320;2022-08-30T14:09:39;97046.28;;;30.49;56.17
20115;BME280;10218;42.874;25.320;2022-08-30T14:12:07;97052.16;;;29.92;60.27
20115;BME280;10218;42.874;25.320;2022-08-30T14:14:34;97043.50;;;29.61;64.17
20115;BME280;10218;42.874;25.320;2022-08-30T14:17:07;97050.91;;;28.94;68.46
20115;BME280;10218;42.874;25.320;2022-08-30T14:19:34;97045.75;;;29.11;69.61
20115;BME280;10218;42.874;25.320;2022-08-30T14:22:01;97042.22;;;28.82;69.15
20115;BME280;10218;42.874;25.320;2022-08-30T14:24:29;97041.25;;;28.68;72.34